createdAt,value
2023-04-18T00:02:34.245Z,54.51
2023-04-18T00:06:00.267Z,54.90
2023-04-18T00:09:25.036Z,54.75
2023-04-18T00:12:49.976Z,54.94
2023-04-18T00:17:11.743Z,55.06
2023-04-18T00:20:39.876Z,55.17
2023-04-18T00:24:05.017Z,54.78
2023-04-18T00:27:29.198Z,55.37
2023-04-18T00:30:53.021Z,55.38
2023-04-18T00:34:17.375Z,55.37
2023-04-18T00:37:41.580Z,55.17
2023-04-18T00:41:07.083Z,55.35
2023-04-18T00:44:31.866Z,55.94
2023-04-18T00:47:56.544Z,55.45
2023-04-18T00:51:22.320Z,56.12
2023-04-18T00:54:47.114Z,55.69
2023-04-18T00:58:13.516Z,55.69
2023-04-18T01:01:37.706Z,55.64
2023-04-18T01:05:01.873Z,57.17
2023-04-18T01:08:25.818Z,57.41
2023-04-18T01:11:52.867Z,57.63
2023-04-18T01:15:18.999Z,58.34
2023-04-18T01:18:44.011Z,57.85
2023-04-18T01:22:22.591Z,58.32
2023-04-18T01:25:49.791Z,58.40
2023-04-18T01:29:14.095Z,57.89
2023-04-18T01:32:38.853Z,58.62
2023-04-18T01:36:03.696Z,58.37
2023-04-18T01:39:27.780Z,58.86
2023-04-18T01:42:55.760Z,58.55
2023-04-18T01:46:19.899Z,59.00
2023-04-18T01:49:48.750Z,59.26
2023-04-18T01:53:12.621Z,59.79
2023-04-18T01:56:36.316Z,60.23
2023-04-18T02:00:02.127Z,60.23
2023-04-18T02:03:26.952Z,60.66
2023-04-18T02:06:53.979Z,61.22
2023-04-18T02:10:17.893Z,61.86
2023-04-18T02:13:41.041Z,61.74
2023-04-18T02:17:07.169Z,62.31
2023-04-18T02:20:32.073Z,62.50
2023-04-18T02:23:56.276Z,62.40
2023-04-18T02:27:21.680Z,62.53
2023-04-18T02:30:46.189Z,62.91
2023-04-18T02:34:12.357Z,62.59
2023-04-18T02:37:37.214Z,62.71
2023-04-18T02:41:00.895Z,62.17
2023-04-18T02:44:24.068Z,62.29
2023-04-18T02:47:55.514Z,62.99
2023-04-18T02:51:23.088Z,62.39
2023-04-18T02:54:51.632Z,62.78
2023-04-18T02:58:15.866Z,63.70
2023-04-18T03:01:39.300Z,63.57
2023-04-18T03:05:05.523Z,63.77
2023-04-18T03:08:31.296Z,63.65
2023-04-18T03:11:58.054Z,63.96
2023-04-18T03:15:22.661Z,64.06
2023-04-18T03:18:50.915Z,64.15
2023-04-18T03:22:17.298Z,64.48
2023-04-18T03:25:43.649Z,64.46
2023-04-18T03:29:08.211Z,65.21
2023-04-18T03:32:34.885Z,65.59
2023-04-18T03:36:00.079Z,65.63
2023-04-18T03:39:25.338Z,65.61
2023-04-18T03:42:52.328Z,65.82
2023-04-18T03:46:17.148Z,65.73
2023-04-18T03:49:41.834Z,65.89
2023-04-18T03:53:06.953Z,65.50
2023-04-18T03:56:30.739Z,66.18
2023-04-18T04:00:00.149Z,66.61
2023-04-18T04:03:24.513Z,66.35
2023-04-18T04:06:52.101Z,66.56
2023-04-18T04:10:16.095Z,66.94
2023-04-18T04:13:42.170Z,66.93
2023-04-18T04:17:06.924Z,67.04
2023-04-18T04:20:30.094Z,67.01
2023-04-18T04:23:53.868Z,66.95
2023-04-18T04:27:19.487Z,66.18
2023-04-18T04:30:44.398Z,66.37
2023-04-18T04:34:11.271Z,65.75
2023-04-18T04:37:35.971Z,64.80
2023-04-18T04:41:01.060Z,63.10
2023-04-18T04:44:27.731Z,62.02
2023-04-18T04:47:51.949Z,60.28
2023-04-18T04:51:18.251Z,60.63
2023-04-18T04:54:43.438Z,59.03
2023-04-18T04:58:07.426Z,58.20
2023-04-18T05:01:31.947Z,57.16
2023-04-18T05:04:57.946Z,57.20
2023-04-18T05:08:29.416Z,57.34
2023-04-18T05:11:55.021Z,57.69
2023-04-18T05:15:22.698Z,54.91
2023-04-18T05:18:48.315Z,55.98
2023-04-18T05:22:18.202Z,51.87
2023-04-18T05:25:49.402Z,51.05
2023-04-18T05:29:14.410Z,50.54
2023-04-18T05:32:41.399Z,51.29
2023-04-18T05:36:07.951Z,50.72
2023-04-18T05:39:40.262Z,49.80
2023-04-18T05:43:09.911Z,48.74
2023-04-18T05:46:36.502Z,51.19
2023-04-18T05:50:02.271Z,52.14
2023-04-18T05:53:29.350Z,53.14
2023-04-18T05:56:54.150Z,53.83
2023-04-18T06:00:23.655Z,52.44
2023-04-18T06:03:55.657Z,52.85
2023-04-18T06:07:22.147Z,52.40
2023-04-18T06:10:46.252Z,51.60
2023-04-18T06:14:16.566Z,50.54
2023-04-18T06:17:42.995Z,50.41
2023-04-18T06:21:06.097Z,50.44
2023-04-18T06:24:31.151Z,51.01
2023-04-18T06:27:59.688Z,49.69
2023-04-18T06:31:23.682Z,49.07
2023-04-18T06:34:48.781Z,48.32
2023-04-18T06:38:17.168Z,48.68
2023-04-18T06:41:40.659Z,47.52
2023-04-18T06:45:06.668Z,47.87
2023-04-18T06:48:29.846Z,46.49
2023-04-18T06:51:54.138Z,45.07
2023-04-18T06:55:17.715Z,43.74
2023-04-18T06:58:41.071Z,44.03
2023-04-18T07:02:04.195Z,40.82
2023-04-18T07:05:28.023Z,39.52
2023-04-18T07:08:54.793Z,38.79
2023-04-18T07:12:19.262Z,38.62
2023-04-18T07:15:42.994Z,38.10
2023-04-18T07:19:08.147Z,37.07
2023-04-18T07:22:38.532Z,38.30
2023-04-18T07:26:12.406Z,37.36
2023-04-18T07:29:36.808Z,34.37
2023-04-18T07:33:00.817Z,34.14
2023-04-18T07:36:25.270Z,33.30
2023-04-18T07:39:49.362Z,30.61
2023-04-18T07:43:16.213Z,31.66
2023-04-18T07:46:40.972Z,33.41
2023-04-18T07:50:05.450Z,34.27
2023-04-18T07:53:29.984Z,31.48
2023-04-18T07:56:56.446Z,32.55
2023-04-18T08:00:23.405Z,32.04
2023-04-18T08:03:48.952Z,32.22
2023-04-18T08:07:13.421Z,33.44
2023-04-18T08:10:39.170Z,32.60
2023-04-18T08:14:05.534Z,33.97
2023-04-18T08:17:34.013Z,32.80
2023-04-18T08:20:58.525Z,32.98
2023-04-18T08:24:22.977Z,33.70
2023-04-18T08:27:47.258Z,31.61
2023-04-18T08:31:16.439Z,33.04
2023-04-18T08:34:44.995Z,33.64
2023-04-18T08:38:10.984Z,34.33
2023-04-18T08:41:41.562Z,32.84
2023-04-18T08:45:07.015Z,33.78
2023-04-18T08:48:30.718Z,32.30
2023-04-18T08:52:02.537Z,31.44
2023-04-18T08:55:27.191Z,32.15
2023-04-18T08:58:54.245Z,30.73
2023-04-18T09:02:20.532Z,30.26
2023-04-18T09:05:47.433Z,31.34
2023-04-18T09:09:14.271Z,31.16
2023-04-18T09:12:50.979Z,31.19
2023-04-18T09:16:15.307Z,31.21
2023-04-18T09:19:47.555Z,30.90
2023-04-18T09:23:15.310Z,32.05
2023-04-18T09:26:41.554Z,30.31
2023-04-18T09:30:05.586Z,29.09
2023-04-18T09:33:33.712Z,28.45
2023-04-18T09:37:14.353Z,25.96
2023-04-18T09:40:38.680Z,27.28
2023-04-18T09:44:18.397Z,26.05
2023-04-18T09:47:42.984Z,27.61
2023-04-18T09:51:10.352Z,27.02
2023-04-18T09:54:40.313Z,26.48
2023-04-18T09:58:09.731Z,25.42
2023-04-18T10:01:36.954Z,27.07
2023-04-18T10:05:03.187Z,27.46
2023-04-18T10:08:27.509Z,26.10
2023-04-18T10:11:53.328Z,25.51
2023-04-18T10:15:18.247Z,27.43
2023-04-18T10:18:46.345Z,26.13
2023-04-18T10:22:11.027Z,27.96
2023-04-18T10:25:55.029Z,26.70
2023-04-18T10:29:22.754Z,29.13
2023-04-18T10:32:47.811Z,27.94
2023-04-18T10:36:22.028Z,26.90
2023-04-18T10:39:58.971Z,26.68
2023-04-18T10:43:22.444Z,28.53
2023-04-18T10:47:02.376Z,28.61
2023-04-18T10:50:27.310Z,28.05
2023-04-18T10:53:58.878Z,27.38
2023-04-18T10:57:24.044Z,28.79
2023-04-18T11:00:50.346Z,28.77
2023-04-18T11:04:16.814Z,28.25
2023-04-18T11:07:45.898Z,26.83
2023-04-18T11:11:12.217Z,27.77
2023-04-18T11:14:55.296Z,25.90
2023-04-18T11:18:20.042Z,26.31
2023-04-18T11:21:45.154Z,25.96
2023-04-18T11:25:10.463Z,27.10
2023-04-18T11:28:35.990Z,26.94
2023-04-18T11:32:03.527Z,26.23
2023-04-18T11:35:27.961Z,26.97
2023-04-18T11:38:52.241Z,25.50
2023-04-18T11:42:17.241Z,26.61
2023-04-18T11:45:53.326Z,26.23
2023-04-18T11:49:31.021Z,27.49
2023-04-18T11:52:57.052Z,26.31
2023-04-18T11:56:20.225Z,26.70
2023-04-18T11:59:51.053Z,27.58
2023-04-18T12:03:20.302Z,26.29
2023-04-18T12:06:51.007Z,27.09
2023-04-18T12:10:28.548Z,26.89
2023-04-18T12:13:52.023Z,27.49
2023-04-18T12:17:16.485Z,27.02
2023-04-18T12:20:46.544Z,27.05
2023-04-18T12:24:16.790Z,27.37
2023-04-18T12:28:00.488Z,27.70
2023-04-18T12:31:24.285Z,28.49
2023-04-18T12:34:48.061Z,28.50
2023-04-18T12:38:13.347Z,28.64
2023-04-18T12:41:37.949Z,28.88
2023-04-18T12:45:08.185Z,29.88
2023-04-18T12:48:34.882Z,29.43
2023-04-18T12:51:59.220Z,29.30
2023-04-18T12:55:25.347Z,28.82
2023-04-18T12:58:50.065Z,28.91
2023-04-18T13:02:15.038Z,28.93
2023-04-18T13:05:39.416Z,29.17
2023-04-18T13:09:04.367Z,29.13
2023-04-18T13:12:31.319Z,29.61
2023-04-18T13:15:56.380Z,30.51
2023-04-18T13:19:20.203Z,30.08
2023-04-18T13:22:45.429Z,29.67
2023-04-18T13:26:10.329Z,29.48
2023-04-18T13:29:37.183Z,29.01
2023-04-18T13:33:03.072Z,29.77
2023-04-18T13:36:27.398Z,30.00
2023-04-18T13:39:51.486Z,28.86
2023-04-18T13:43:16.182Z,28.47
2023-04-18T13:46:42.097Z,28.81
2023-04-18T13:50:09.519Z,28.96
2023-04-18T13:53:33.950Z,29.84
2023-04-18T13:56:59.297Z,28.48
2023-04-18T14:00:23.479Z,28.76
2023-04-18T14:03:48.509Z,27.95
2023-04-18T14:07:12.370Z,28.71
2023-04-18T14:10:35.736Z,30.08
2023-04-18T14:14:04.232Z,31.27
2023-04-18T14:17:29.125Z,30.95
2023-04-18T14:20:55.934Z,31.76
2023-04-18T14:24:19.664Z,31.77
2023-04-18T14:27:43.857Z,32.18
2023-04-18T14:31:08.302Z,32.24
2023-04-18T14:34:34.407Z,31.86
2023-04-18T14:38:02.259Z,32.00
2023-04-18T14:41:26.543Z,31.60
2023-04-18T14:44:50.100Z,31.14
2023-04-18T14:48:14.181Z,31.25
2023-04-18T14:51:38.100Z,31.41
2023-04-18T14:55:03.313Z,31.87
2023-04-18T14:58:27.406Z,31.91
2023-04-18T15:01:51.947Z,31.87
2023-04-18T15:05:15.809Z,32.14
2023-04-18T15:08:40.255Z,32.35
2023-04-18T15:12:06.292Z,33.15
2023-04-18T15:15:31.462Z,33.44
2023-04-18T15:18:56.300Z,33.61
2023-04-18T15:22:21.412Z,34.23
2023-04-18T15:25:47.349Z,33.83
2023-04-18T15:29:13.045Z,34.33
2023-04-18T15:32:37.775Z,34.04
2023-04-18T15:36:02.164Z,34.19
2023-04-18T15:39:26.246Z,34.35
2023-04-18T15:42:52.089Z,34.71
2023-04-18T15:46:17.417Z,35.33
2023-04-18T15:49:41.075Z,35.79
2023-04-18T15:53:06.118Z,35.96
2023-04-18T15:56:33.056Z,35.12
2023-04-18T15:59:59.264Z,34.80
2023-04-18T16:03:26.217Z,34.61
2023-04-18T16:06:50.305Z,34.28
2023-04-18T16:10:15.966Z,33.41
2023-04-18T16:13:40.732Z,32.95
2023-04-18T16:17:05.848Z,32.95
2023-04-18T16:20:31.362Z,32.63
2023-04-18T16:23:55.650Z,31.60
2023-04-18T16:27:20.126Z,31.47
2023-04-18T16:30:44.888Z,31.21
2023-04-18T16:34:09.553Z,31.17
2023-04-18T16:37:36.146Z,30.31
2023-04-18T16:41:02.348Z,31.11
2023-04-18T16:44:25.805Z,30.58
2023-04-18T16:47:49.319Z,30.20
2023-04-18T16:51:14.175Z,29.72
2023-04-18T16:54:40.018Z,29.22
2023-04-18T16:58:04.401Z,29.20
2023-04-18T17:01:28.520Z,30.30
2023-04-18T17:04:52.912Z,30.32
2023-04-18T17:08:16.255Z,30.06
2023-04-18T17:11:41.804Z,30.18
2023-04-18T17:15:06.366Z,30.00
2023-04-18T17:18:31.681Z,30.38
2023-04-18T17:21:55.264Z,30.17
2023-04-18T17:25:21.604Z,31.06
2023-04-18T17:28:47.428Z,31.10
2023-04-18T17:32:11.594Z,30.65
2023-04-18T17:35:35.801Z,31.89
2023-04-18T17:39:06.585Z,31.83
2023-04-18T17:42:30.033Z,31.83
2023-04-18T17:45:56.065Z,32.07
2023-04-18T17:49:19.926Z,32.51
2023-04-18T17:52:44.151Z,32.90
2023-04-18T17:56:09.022Z,32.77
2023-04-18T17:59:38.435Z,32.93
2023-04-18T18:03:04.464Z,33.80
2023-04-18T18:06:32.152Z,34.03
2023-04-18T18:09:56.429Z,33.89
2023-04-18T18:13:20.923Z,34.88
2023-04-18T18:16:45.458Z,34.23
2023-04-18T18:20:14.156Z,33.99
2023-04-18T18:23:39.156Z,34.87
2023-04-18T18:27:06.995Z,35.06
2023-04-18T18:30:31.602Z,35.66
2023-04-18T18:33:54.968Z,35.19
2023-04-18T18:37:22.424Z,35.60
2023-04-18T18:40:46.722Z,35.96
2023-04-18T18:44:12.350Z,36.05
2023-04-18T18:47:39.671Z,36.26
2023-04-18T18:51:05.355Z,36.91
2023-04-18T18:54:32.024Z,37.13
2023-04-18T18:57:56.163Z,37.70
2023-04-18T19:01:23.149Z,37.46
2023-04-18T19:04:47.899Z,37.65
2023-04-18T19:08:11.172Z,37.86
2023-04-18T19:11:38.184Z,37.80
2023-04-18T19:15:01.970Z,38.04
2023-04-18T19:18:25.169Z,38.27
2023-04-18T19:21:51.324Z,38.13
2023-04-18T19:25:15.415Z,38.29
2023-04-18T19:28:40.927Z,38.32
2023-04-18T19:32:05.119Z,37.99
2023-04-18T19:35:30.214Z,38.07
2023-04-18T19:38:55.037Z,38.03
2023-04-18T19:42:17.779Z,37.96
2023-04-18T19:45:43.377Z,37.89
2023-04-18T19:49:07.409Z,38.37
2023-04-18T19:52:31.374Z,38.11
2023-04-18T19:55:56.058Z,37.98
2023-04-18T19:59:19.464Z,38.05
2023-04-18T20:02:45.306Z,38.00
2023-04-18T20:06:09.373Z,37.65
2023-04-18T20:10:42.186Z,37.95
2023-04-18T20:14:05.230Z,37.83
2023-04-18T20:17:31.005Z,38.09
2023-04-18T20:20:57.216Z,38.00
2023-04-18T20:24:22.495Z,38.11
2023-04-18T20:27:46.885Z,38.14
2023-04-18T20:31:11.210Z,37.83
2023-04-18T20:34:35.076Z,38.22
2023-04-18T20:38:03.478Z,37.94
2023-04-18T20:41:28.233Z,38.23
2023-04-18T20:44:52.078Z,38.37
2023-04-18T20:48:16.322Z,38.06
2023-04-18T20:51:40.617Z,38.65
2023-04-18T20:55:06.509Z,38.87
2023-04-18T20:58:31.551Z,38.52
2023-04-18T21:01:59.620Z,38.82
2023-04-18T21:05:24.532Z,38.74
2023-04-18T21:08:49.772Z,38.87
2023-04-18T21:12:17.228Z,39.32
2023-04-18T21:15:43.736Z,39.36
2023-04-18T21:19:08.222Z,38.90
2023-04-18T21:22:33.476Z,38.81
2023-04-18T21:25:58.474Z,39.83
2023-04-18T21:29:24.216Z,39.62
2023-04-18T21:32:50.269Z,39.75
2023-04-18T21:36:15.137Z,39.20
2023-04-18T21:39:40.346Z,39.69
2023-04-18T21:43:05.476Z,39.51
2023-04-18T21:46:30.891Z,40.18
2023-04-18T21:49:56.529Z,40.36
2023-04-18T21:53:21.405Z,40.19
2023-04-18T21:56:46.321Z,39.60
2023-04-18T22:00:12.223Z,39.73
2023-04-18T22:03:39.977Z,39.98
2023-04-18T22:07:04.223Z,40.71
2023-04-18T22:10:29.006Z,40.44
2023-04-18T22:13:55.469Z,40.48
2023-04-18T22:17:19.586Z,41.22
2023-04-18T22:20:47.819Z,40.68
2023-04-18T22:24:13.397Z,41.04
2023-04-18T22:27:37.832Z,41.13
2023-04-18T22:31:01.266Z,40.75
2023-04-18T22:34:25.600Z,40.46
2023-04-18T22:37:51.731Z,41.45
2023-04-18T22:41:15.254Z,40.82
2023-04-18T22:44:39.491Z,40.82
2023-04-18T22:48:03.955Z,41.55
2023-04-18T22:51:29.403Z,40.67
2023-04-18T22:54:56.068Z,41.42
2023-04-18T22:58:23.214Z,41.30
2023-04-18T23:01:47.834Z,40.71
2023-04-18T23:05:12.826Z,40.77
2023-04-18T23:08:37.211Z,41.20
2023-04-18T23:12:02.942Z,40.37
2023-04-18T23:15:28.158Z,40.74
2023-04-18T23:18:53.165Z,40.99
2023-04-18T23:22:17.645Z,41.57
2023-04-18T23:25:41.550Z,41.31
2023-04-18T23:29:10.163Z,41.72
2023-04-18T23:32:34.220Z,41.91
2023-04-18T23:35:59.262Z,41.65
2023-04-18T23:39:23.221Z,42.15
2023-04-18T23:42:48.165Z,41.79
2023-04-18T23:46:14.477Z,41.79
2023-04-18T23:49:38.742Z,42.20
2023-04-18T23:53:03.352Z,41.86
2023-04-18T23:56:27.166Z,42.46
2023-04-18T23:59:51.520Z,42.15
